| time (UTC) | temp C | wind direction | speed KPH | gust KPH | rain 1hr cm | rain 24hr cm | rain mn cm | humidity % | barometer mb |
| 20260503175515 | 15 | 239 | 6.4 | 12.9 | 0.00 | 0.00 | 0.00 | 65 | 1012.6 |
| 20260503174515 | 15 | 265 | 3.2 | 17.7 | 0.00 | 0.00 | 0.00 | 67 | 1012.6 |
| 20260503173515 | 15 | 191 | 6.4 | 11.3 | 0.00 | 0.00 | 0.00 | 65 | 1012.5 |
| 20260503172515 | 15 | 218 | 1.6 | 4.8 | 0.00 | 0.00 | 0.00 | 68 | 1012.4 |
| 20260503171515 | 15 | 320 | 3.2 | 6.4 | 0.00 | 0.00 | 0.00 | 69 | 1012.4 |
| 20260503170516 | 15 | 312 | 0.0 | 4.8 | 0.00 | 0.00 | 0.00 | 69 | 1012.4 |
| 20260503150536 | 13 | 0.0 | 0.0 | 0.00 | 0.00 | 0.00 | 80 | 1012.1 | |
| 20260503130515 | 12 | 336 | 0.0 | 1.6 | 0.00 | 0.00 | 0.00 | 81 | 1010.9 |
| 20260503110514 | 12 | 0.0 | 0.0 | 0.00 | 0.00 | 0.00 | 76 | 1010.8 | |
| 20260503081537 | 13 | 0.0 | 0.0 | 0.00 | 0.00 | 0.00 | 76 | 1011.2 | |
| 20260503080516 | 13 | 0.0 | 4.8 | 0.00 | 0.00 | 0.00 | 76 | 1011.5 | |
| 20260503072517 | 13 | 295 | 0.0 | 4.8 | 0.00 | 0.00 | 0.00 | 76 | 1011.4 |
| 20260503071516 | 13 | 307 | 1.6 | 4.8 | 0.00 | 0.00 | 0.00 | 76 | 1011.6 |
| 20260503070516 | 13 | 349 | 1.6 | 6.4 | 0.00 | 0.00 | 0.00 | 76 | 1011.6 |
| 20260503054515 | 13 | 307 | 3.2 | 11.3 | 0.00 | 0.00 | 0.00 | 75 | 1011.7 |
| 20260503053536 | 13 | 325 | 1.6 | 8.0 | 0.00 | 0.00 | 0.00 | 75 | 1011.8 |
| 20260503052516 | 13 | 295 | 0.0 | 8.0 | 0.00 | 0.00 | 0.00 | 75 | 1011.8 |
| 20260503051516 | 13 | 318 | 1.6 | 4.8 | 0.00 | 0.00 | 0.00 | 75 | 1011.9 |
| 20260503050516 | 13 | 309 | 1.6 | 6.4 | 0.00 | 0.00 | 0.00 | 75 | 1011.9 |
| 20260503045516 | 13 | 305 | 1.6 | 8.0 | 0.00 | 0.00 | 0.00 | 74 | 1011.8 |
| 20260503044515 | 13 | 308 | 1.6 | 8.0 | 0.00 | 0.00 | 0.00 | 74 | 1011.7 |
| 20260503043515 | 13 | 313 | 1.6 | 8.0 | 0.00 | 0.00 | 0.00 | 74 | 1011.7 |
| 20260503042516 | 13 | 292 | 1.6 | 11.3 | 0.00 | 0.00 | 0.00 | 74 | 1011.7 |
| 20260503041515 | 13 | 285 | 3.2 | 9.7 | 0.00 | 0.00 | 0.00 | 74 | 1011.6 |
| 20260503040515 | 13 | 278 | 1.6 | 8.0 | 0.00 | 0.00 | 0.00 | 74 | 1011.5 |
| 20260503035535 | 13 | 294 | 1.6 | 11.3 | 0.00 | 0.00 | 0.00 | 74 | 1011.2 |
| 20260503034515 | 13 | 300 | 1.6 | 8.0 | 0.00 | 0.00 | 0.00 | 74 | 1011.1 |
| 20260503033515 | 13 | 309 | 3.2 | 9.7 | 0.00 | 0.00 | 0.00 | 74 | 1011.0 |
| 20260503032515 | 14 | 323 | 3.2 | 12.9 | 0.00 | 0.00 | 0.00 | 73 | 1010.9 |
| 20260503031516 | 14 | 316 | 1.6 | 12.9 | 0.00 | 0.00 | 0.00 | 73 | 1010.8 |
| 20260503030536 | 15 | 303 | 3.2 | 9.7 | 0.00 | 0.00 | 0.00 | 72 | 1010.8 |
| 20260503025515 | 15 | 260 | 1.6 | 6.4 | 0.00 | 0.00 | 0.00 | 72 | 1010.8 |
| 20260503024536 | 15 | 305 | 1.6 | 11.3 | 0.00 | 0.00 | 0.00 | 72 | 1010.7 |
| 20260503023516 | 15 | 346 | 4.8 | 16.1 | 0.00 | 0.00 | 0.00 | 71 | 1010.6 |
| 20260503022515 | 15 | 311 | 3.2 | 12.9 | 0.00 | 0.00 | 0.00 | 70 | 1010.5 |
| 20260503021536 | 15 | 321 | 3.2 | 12.9 | 0.00 | 0.00 | 0.00 | 69 | 1010.5 |
| 20260503020515 | 16 | 273 | 1.6 | 12.9 | 0.00 | 0.00 | 0.00 | 69 | 1010.5 |
| 20260503015515 | 16 | 319 | 1.6 | 8.0 | 0.00 | 0.00 | 0.00 | 68 | 1010.5 |
| 20260503014536 | 16 | 308 | 1.6 | 9.7 | 0.00 | 0.00 | 0.00 | 69 | 1010.5 |
| 20260503013515 | 16 | 308 | 3.2 | 11.3 | 0.00 | 0.00 | 0.00 | 68 | 1010.5 |
| 20260503012517 | 16 | 301 | 4.8 | 14.5 | 0.00 | 0.00 | 0.00 | 67 | 1010.5 |
| 20260503011516 | 17 | 308 | 3.2 | 11.3 | 0.00 | 0.00 | 0.00 | 66 | 1010.5 |
| 20260503010516 | 17 | 319 | 3.2 | 8.0 | 0.00 | 0.00 | 0.00 | 65 | 1010.4 |
| 20260503005515 | 17 | 292 | 1.6 | 12.9 | 0.00 | 0.00 | 0.00 | 64 | 1010.4 |
| 20260503004515 | 18 | 302 | 3.2 | 12.9 | 0.00 | 0.00 | 0.00 | 63 | 1010.4 |
| 20260503003515 | 18 | 318 | 3.2 | 16.1 | 0.00 | 0.00 | 0.00 | 63 | 1010.4 |
| 20260503002515 | 18 | 312 | 4.8 | 14.5 | 0.00 | 0.00 | 0.00 | 61 | 1010.3 |
| 20260503001515 | 19 | 296 | 3.2 | 14.5 | 0.00 | 0.00 | 0.00 | 60 | 1010.3 |
| 20260503000515 | 20 | 296 | 6.4 | 16.1 | 0.00 | 0.00 | 0.00 | 59 | 1010.3 |
| 20260502235515 | 20 | 310 | 4.8 | 19.3 | 0.00 | 0.00 | 0.00 | 59 | 1010.3 |
| 20260502234535 | 20 | 344 | 4.8 | 17.7 | 0.00 | 0.00 | 0.00 | 59 | 1010.3 |
| 20260502233515 | 20 | 300 | 6.4 | 14.5 | 0.00 | 0.00 | 0.00 | 58 | 1010.3 |
| 20260502232515 | 20 | 307 | 4.8 | 17.7 | 0.00 | 0.00 | 0.00 | 58 | 1010.3 |
| 20260502231515 | 21 | 319 | 4.8 | 14.5 | 0.00 | 0.00 | 0.00 | 57 | 1010.5 |
| 20260502230535 | 21 | 302 | 3.2 | 14.5 | 0.00 | 0.00 | 0.00 | 57 | 1010.6 |
| 20260502225516 | 21 | 288 | 6.4 | 16.1 | 0.00 | 0.00 | 0.00 | 56 | 1010.7 |
| 20260502224515 | 21 | 304 | 8.0 | 17.7 | 0.00 | 0.00 | 0.00 | 55 | 1010.7 |
| 20260502223515 | 21 | 168 | 4.8 | 11.3 | 0.00 | 0.00 | 0.00 | 57 | 1010.8 |
| 20260502222535 | 21 | 248 | 3.2 | 9.7 | 0.00 | 0.00 | 0.00 | 57 | 1011.0 |
| 20260502221535 | 21 | 283 | 3.2 | 9.7 | 0.00 | 0.00 | 0.00 | 58 | 1011.3 |
| 20260502220515 | 21 | 273 | 3.2 | 12.9 | 0.00 | 0.00 | 0.00 | 57 | 1011.5 |
| 20260502215515 | 21 | 280 | 4.8 | 12.9 | 0.00 | 0.00 | 0.00 | 59 | 1011.6 |
| 20260502214516 | 20 | 319 | 6.4 | 11.3 | 0.00 | 0.00 | 0.00 | 59 | 1011.7 |
| 20260502213515 | 20 | 329 | 3.2 | 11.3 | 0.00 | 0.00 | 0.00 | 60 | 1011.7 |
| 20260502212537 | 20 | 343 | 4.8 | 14.5 | 0.00 | 0.00 | 0.00 | 61 | 1011.8 |
| 20260502211515 | 19 | 355 | 4.8 | 9.7 | 0.00 | 0.00 | 0.00 | 61 | 1011.9 |
| 20260502210515 | 19 | 270 | 4.8 | 12.9 | 0.00 | 0.00 | 0.00 | 62 | 1012.0 |
| 20260502205515 | 19 | 305 | 3.2 | 14.5 | 0.00 | 0.00 | 0.00 | 62 | 1012.2 |
| 20260502204515 | 19 | 161 | 1.6 | 11.3 | 0.00 | 0.00 | 0.00 | 63 | 1012.3 |
| 20260502203515 | 18 | 83 | 1.6 | 6.4 | 0.00 | 0.00 | 0.00 | 65 | 1012.4 |
| 20260502202515 | 18 | 322 | 3.2 | 6.4 | 0.00 | 0.00 | 0.00 | 66 | 1012.5 |
| 20260502201515 | 17 | 6 | 3.2 | 9.7 | 0.00 | 0.00 | 0.00 | 68 | 1012.8 |
| 20260502200515 | 17 | 48 | 4.8 | 14.5 | 0.00 | 0.00 | 0.00 | 69 | 1012.8 |
| 20260502195515 | 17 | 113 | 3.2 | 8.0 | 0.00 | 0.00 | 0.00 | 70 | 1012.9 |
| 20260502194536 | 17 | 137 | 1.6 | 9.7 | 0.00 | 0.00 | 0.00 | 70 | 1013.2 |
| 20260502193535 | 16 | 116 | 1.6 | 4.8 | 0.00 | 0.00 | 0.00 | 71 | 1013.3 |
| 20260502192515 | 16 | 105 | 1.6 | 6.4 | 0.00 | 0.00 | 0.00 | 73 | 1013.4 |
| 20260502191515 | 16 | 111 | 0.0 | 4.8 | 0.00 | 0.00 | 0.00 | 73 | 1013.5 |
| 20260502190515 | 15 | 157 | 1.6 | 6.4 | 0.00 | 0.00 | 0.00 | 75 | 1013.4 |
| 20260502185515 | 15 | 178 | 3.2 | 8.0 | 0.00 | 0.00 | 0.00 | 74 | 1013.5 |
| 20260502184536 | 15 | 161 | 3.2 | 9.7 | 0.00 | 0.00 | 0.00 | 73 | 1013.5 |
| 20260502183516 | 15 | 73 | 0.0 | 9.7 | 0.00 | 0.00 | 0.00 | 75 | 1013.5 |
| 20260502182515 | 15 | 142 | 0.0 | 4.8 | 0.00 | 0.00 | 0.00 | 76 | 1013.6 |
| 20260502181515 | 15 | 58 | 1.6 | 6.4 | 0.00 | 0.00 | 0.00 | 77 | 1013.6 |
| 20260502180514 | 15 | 355 | 0.0 | 3.2 | 0.00 | 0.00 | 0.00 | 77 | 1013.6 |